Time;durP1;ratioP1;P1;durP2;ratioP2;P2;SDS_P1;SDS_P2;PMS_P1;PMS_P2;Temp;Humidity;BMP_temperature;BMP_pressure;BME280_temperature;BME280_humidity;BME280_pressure;Samples;Min_cycle;Max_cycle;Signal;HPM_P1;HPM_P2
2021/04/07 00:00:38;;;;;;;11.80;11.23;;;1.70;99.90;;;;;;5132725;27;20446;-66
2021/04/07 00:03:06;;;;;;;11.97;11.17;;;1.70;99.90;;;;;;5132614;27;20933;-66
2021/04/07 00:05:35;;;;;;;12.97;12.17;;;1.70;99.90;;;;;;5132262;27;20470;-66
2021/04/07 00:08:01;;;;;;;12.03;11.43;;;1.80;99.90;;;;;;5132503;27;20445;-66
2021/04/07 00:10:32;;;;;;;12.00;11.20;;;1.70;99.90;;;;;;5132417;27;20443;-66
2021/04/07 00:12:58;;;;;;;11.40;10.80;;;1.90;99.90;;;;;;5132847;27;21157;-65
2021/04/07 00:15:27;;;;;;;10.67;10.17;;;1.90;99.90;;;;;;5132891;27;21091;-66
2021/04/07 00:17:53;;;;;;;11.57;10.97;;;1.80;99.90;;;;;;5132243;27;20455;-66
2021/04/07 00:20:22;;;;;;;11.53;11.00;;;1.80;99.90;;;;;;5131824;27;20546;-66
2021/04/07 00:22:49;;;;;;;11.83;11.20;;;1.90;99.90;;;;;;5132178;28;20464;-66
2021/04/07 00:25:17;;;;;;;11.83;11.13;;;1.90;99.90;;;;;;5132535;27;20446;-66
2021/04/07 00:27:45;;;;;;;12.40;11.80;;;1.90;99.90;;;;;;5132224;28;20454;-66
2021/04/07 00:30:12;;;;;;;11.80;10.90;;;1.90;99.90;;;;;;5132152;27;21038;-66
2021/04/07 00:32:39;;;;;;;11.07;10.37;;;1.90;99.90;;;;;;5132181;27;20478;-66
2021/04/07 00:35:07;;;;;;;12.10;11.50;;;2.00;99.90;;;;;;5131889;27;20445;-67
2021/04/07 00:37:33;;;;;;;12.00;11.13;;;2.00;99.90;;;;;;5131839;27;20466;-67
2021/04/07 00:39:59;;;;;;;11.00;10.40;;;2.00;99.90;;;;;;5132075;27;20446;-67
2021/04/07 00:42:25;;;;;;;11.47;10.83;;;2.00;99.90;;;;;;5134036;27;20448;-67
2021/04/07 00:44:51;;;;;;;11.63;11.10;;;1.90;99.90;;;;;;5135921;27;20454;-66
2021/04/07 00:47:20;;;;;;;11.00;10.40;;;1.80;99.90;;;;;;5136010;27;20453;-67
2021/04/07 00:49:47;;;;;;;11.10;10.60;;;1.90;99.90;;;;;;5136151;27;20530;-67
2021/04/07 00:52:13;;;;;;;10.77;10.23;;;1.90;99.90;;;;;;5135981;27;20994;-67
2021/04/07 00:54:40;;;;;;;10.80;10.30;;;1.80;99.90;;;;;;5135704;27;20461;-67
2021/04/07 00:57:06;;;;;;;10.87;10.30;;;1.90;99.90;;;;;;5135998;27;21184;-67
2021/04/07 00:59:33;;;;;;;10.60;10.10;;;1.90;99.90;;;;;;5135821;27;20448;-67
2021/04/07 01:02:00;;;;;;;11.43;10.83;;;1.90;99.90;;;;;;5135710;27;20868;-67
2021/04/07 01:04:27;;;;;;;12.60;11.80;;;1.90;99.90;;;;;;5136100;27;20452;-67
2021/04/07 01:06:56;;;;;;;13.60;12.70;;;2.00;99.90;;;;;;5135732;27;20457;-67
2021/04/07 01:09:22;;;;;;;12.37;11.77;;;1.90;99.90;;;;;;5135472;27;20450;-67
2021/04/07 01:11:48;;;;;;;11.60;10.97;;;1.90;99.90;;;;;;5135596;27;20943;-66
2021/04/07 01:14:15;;;;;;;12.57;11.90;;;2.00;99.90;;;;;;5135495;27;20444;-66
2021/04/07 01:16:42;;;;;;;13.13;12.43;;;2.00;99.90;;;;;;5135694;27;20550;-66
2021/04/07 01:19:09;;;;;;;12.03;11.43;;;1.90;99.90;;;;;;5135539;27;20832;-67
2021/04/07 01:21:36;;;;;;;12.73;11.93;;;1.90;99.90;;;;;;5135369;27;20454;-66
2021/04/07 01:24:04;;;;;;;12.80;12.20;;;2.00;99.90;;;;;;5135331;27;20448;-66
2021/04/07 01:26:30;;;;;;;12.50;11.83;;;1.80;99.90;;;;;;5135481;27;20457;-66
2021/04/07 01:28:57;;;;;;;12.60;12.00;;;1.80;99.90;;;;;;5135478;27;20440;-66
2021/04/07 01:31:23;;;;;;;11.73;11.00;;;1.70;99.90;;;;;;5135338;27;20454;-66
2021/04/07 01:33:49;;;;;;;13.20;12.07;;;1.60;99.90;;;;;;5135349;27;20486;-67
2021/04/07 01:36:16;;;;;;;12.03;11.33;;;1.60;99.90;;;;;;5135184;27;20455;-67
2021/04/07 01:38:42;;;;;;;12.27;11.67;;;1.50;99.90;;;;;;5135174;27;20453;-66
2021/04/07 01:41:12;;;;;;;12.57;11.87;;;1.50;99.90;;;;;;5135008;27;20445;-66
2021/04/07 01:43:39;;;;;;;12.93;12.10;;;1.40;99.90;;;;;;5134838;27;20451;-66
2021/04/07 01:46:05;;;;;;;13.10;12.40;;;1.40;99.90;;;;;;5135212;27;20451;-66
2021/04/07 01:48:31;;;;;;;11.60;11.00;;;1.30;99.90;;;;;;5135143;27;20468;-66
2021/04/07 01:50:59;;;;;;;13.73;12.87;;;1.20;99.90;;;;;;5134802;27;20468;-67
2021/04/07 01:53:25;;;;;;;12.13;11.43;;;1.20;99.90;;;;;;5133980;27;21029;-66
2021/04/07 01:55:51;;;;;;;12.93;12.23;;;1.20;99.90;;;;;;5134936;27;20456;-67
2021/04/07 01:58:18;;;;;;;14.60;13.60;;;1.20;99.90;;;;;;5134910;27;20457;-66
2021/04/07 02:00:45;;;;;;;13.30;12.50;;;1.20;99.90;;;;;;5134965;27;20792;-67
2021/04/07 02:03:11;;;;;;;12.70;12.00;;;1.30;99.90;;;;;;5134659;27;20457;-67
2021/04/07 02:05:37;;;;;;;13.40;12.27;;;1.20;99.90;;;;;;5134499;27;20457;-66
2021/04/07 02:08:03;;;;;;;13.40;12.50;;;1.10;99.90;;;;;;5134643;27;20974;-66
2021/04/07 02:10:30;;;;;;;12.73;11.90;;;1.20;99.90;;;;;;5134645;27;20448;-67
2021/04/07 02:12:59;;;;;;;12.57;11.97;;;1.20;99.90;;;;;;5134637;27;20479;-67
2021/04/07 02:15:26;;;;;;;13.40;12.60;;;1.20;99.90;;;;;;5134865;27;20480;-67
2021/04/07 02:17:53;;;;;;;12.43;11.67;;;1.20;99.90;;;;;;5134486;27;20826;-67
2021/04/07 02:20:20;;;;;;;13.50;12.40;;;1.20;99.90;;;;;;5134165;27;21083;-68
2021/04/07 02:22:49;;;;;;;12.93;12.20;;;1.10;99.90;;;;;;5134354;27;20537;-67
2021/04/07 02:25:15;;;;;;;12.30;11.60;;;1.10;99.90;;;;;;5134310;27;20459;-68
2021/04/07 02:27:41;;;;;;;13.30;12.47;;;1.10;99.90;;;;;;5134124;27;20448;-67
2021/04/07 02:30:10;;;;;;;13.37;12.50;;;1.20;99.90;;;;;;5133804;27;20457;-68
2021/04/07 02:32:37;;;;;;;13.80;12.90;;;1.20;99.90;;;;;;5133859;27;21048;-67
2021/04/07 02:35:04;;;;;;;13.37;12.57;;;1.20;99.90;;;;;;5134137;27;20455;-67
2021/04/07 02:37:31;;;;;;;13.20;12.40;;;1.20;99.90;;;;;;5134062;27;20469;-67
2021/04/07 02:39:58;;;;;;;12.70;12.00;;;1.20;99.90;;;;;;5134027;27;20444;-68
2021/04/07 02:42:24;;;;;;;13.90;13.00;;;1.10;99.90;;;;;;5133987;27;20476;-68
2021/04/07 02:44:51;;;;;;;13.50;12.50;;;1.10;99.90;;;;;;5133759;27;20453;-67
2021/04/07 02:47:18;;;;;;;13.43;12.53;;;1.10;99.90;;;;;;5133621;27;20451;-67
2021/04/07 02:49:45;;;;;;;13.87;12.97;;;1.10;99.90;;;;;;5133727;27;20819;-68
2021/04/07 02:52:12;;;;;;;13.83;13.00;;;1.10;99.90;;;;;;5133683;27;20488;-68
2021/04/07 02:54:38;;;;;;;13.87;13.07;;;1.20;99.90;;;;;;5133480;27;20501;-67
2021/04/07 02:57:05;;;;;;;14.13;13.10;;;1.30;99.90;;;;;;5133573;27;20450;-67
2021/04/07 02:59:31;;;;;;;14.30;13.20;;;1.30;99.90;;;;;;5133495;27;20866;-67
2021/04/07 03:01:58;;;;;;;14.13;13.23;;;1.30;99.90;;;;;;5133722;27;20461;-68
2021/04/07 03:04:24;;;;;;;14.47;13.40;;;1.40;99.90;;;;;;5133238;27;20437;-67
2021/04/07 03:06:51;;;;;;;13.53;12.63;;;1.40;99.90;;;;;;5133740;27;20449;-67
2021/04/07 03:09:17;;;;;;;13.60;12.80;;;1.40;99.90;;;;;;5133539;27;20456;-68
2021/04/07 03:11:43;;;;;;;15.40;14.17;;;1.50;99.90;;;;;;5133574;27;20448;-68
2021/04/07 03:14:10;;;;;;;13.40;12.47;;;1.50;99.90;;;;;;5133027;27;20848;-68
2021/04/07 03:16:36;;;;;;;15.13;14.13;;;1.60;99.90;;;;;;5133273;27;20840;-67
2021/04/07 03:19:03;;;;;;;13.03;12.10;;;1.60;99.90;;;;;;5132926;27;20842;-68
2021/04/07 03:21:29;;;;;;;13.70;12.80;;;1.60;99.90;;;;;;5132995;27;20955;-68
2021/04/07 03:23:56;;;;;;;14.37;13.27;;;1.60;99.90;;;;;;5133038;27;20447;-68
2021/04/07 03:26:23;;;;;;;15.33;14.13;;;1.60;99.90;;;;;;5133055;27;20449;-67
2021/04/07 03:28:49;;;;;;;12.90;12.00;;;1.50;99.90;;;;;;5132985;27;20505;-68
2021/04/07 03:31:15;;;;;;;12.40;11.80;;;1.60;99.90;;;;;;5132837;27;20847;-67
2021/04/07 03:33:42;;;;;;;14.80;13.90;;;1.60;99.90;;;;;;5132768;27;21048;-67
2021/04/07 03:36:09;;;;;;;12.43;11.67;;;1.60;99.90;;;;;;5132618;27;20444;-67
2021/04/07 03:38:35;;;;;;;13.17;12.17;;;1.60;99.90;;;;;;5132740;27;20522;-67
2021/04/07 03:41:03;;;;;;;14.50;13.60;;;1.60;99.90;;;;;;5132748;27;20811;-67
2021/04/07 03:43:29;;;;;;;13.73;12.77;;;1.70;99.90;;;;;;5132689;27;20447;-68
2021/04/07 03:45:57;;;;;;;14.00;13.00;;;1.70;99.90;;;;;;5132662;27;20450;-67
2021/04/07 03:48:25;;;;;;;14.60;13.67;;;1.70;99.90;;;;;;5132511;27;20522;-68
2021/04/07 03:50:52;;;;;;;12.37;11.67;;;1.60;99.90;;;;;;5132557;27;20992;-68
2021/04/07 03:53:19;;;;;;;13.10;12.33;;;1.60;99.90;;;;;;5132791;27;20480;-66
2021/04/07 03:55:46;;;;;;;14.27;12.90;;;1.70;99.90;;;;;;5132525;27;20455;-69
2021/04/07 03:58:14;;;;;;;12.87;12.10;;;1.70;99.90;;;;;;5132776;27;20477;-70
2021/04/07 04:00:41;;;;;;;13.53;12.60;;;1.70;99.90;;;;;;5132291;27;20831;-69
2021/04/07 04:03:07;;;;;;;12.97;11.50;;;1.70;99.90;;;;;;5132524;27;20438;-69
2021/04/07 04:05:33;;;;;;;13.10;11.83;;;1.80;99.90;;;;;;5132479;27;20806;-68
2021/04/07 04:08:00;;;;;;;13.33;12.30;;;1.70;99.90;;;;;;5132309;27;20443;-67
2021/04/07 04:10:26;;;;;;;12.60;11.80;;;1.70;99.90;;;;;;5132421;27;20501;-68
2021/04/07 04:12:53;;;;;;;14.40;13.20;;;1.70;99.90;;;;;;5132227;27;20481;-68
2021/04/07 04:15:21;;;;;;;12.87;11.70;;;1.70;99.90;;;;;;5132099;27;20458;-68
2021/04/07 04:17:48;;;;;;;12.23;11.70;;;1.70;99.90;;;;;;5131638;27;20449;-70
2021/04/07 04:20:16;;;;;;;11.77;11.07;;;1.70;99.90;;;;;;5132082;27;20526;-72
2021/04/07 04:22:42;;;;;;;11.50;10.90;;;1.70;99.90;;;;;;5132175;27;20452;-72
2021/04/07 04:25:11;;;;;;;12.10;11.33;;;1.70;99.90;;;;;;5132010;27;20446;-71
2021/04/07 04:27:38;;;;;;;11.70;10.90;;;1.70;99.90;;;;;;5131826;27;20452;-71
2021/04/07 04:30:06;;;;;;;11.67;11.07;;;1.70;99.90;;;;;;5132125;27;20879;-73
2021/04/07 04:32:33;;;;;;;11.93;11.23;;;1.70;99.90;;;;;;5131932;27;20472;-72
2021/04/07 04:35:00;;;;;;;11.07;10.50;;;1.70;99.90;;;;;;5132397;27;20443;-72
2021/04/07 04:37:26;;;;;;;11.80;11.20;;;1.70;99.90;;;;;;5131898;28;20449;-72
2021/04/07 04:39:52;;;;;;;12.13;10.37;;;1.70;99.90;;;;;;5131980;27;20458;-73
2021/04/07 04:42:19;;;;;;;11.70;11.20;;;1.80;99.90;;;;;;5131748;27;20455;-72
2021/04/07 04:44:45;;;;;;;12.00;11.10;;;1.80;99.90;;;;;;5128142;27;20437;-71
2021/04/07 04:47:11;;;;;;;10.03;9.40;;;1.70;99.90;;;;;;5119695;28;20431;-70
2021/04/07 04:49:38;;;;;;;11.30;10.60;;;1.70;99.90;;;;;;5121272;27;20508;-71
2021/04/07 04:52:05;;;;;;;12.43;11.70;;;1.70;99.90;;;;;;5119785;28;20443;-71
2021/04/07 04:54:31;;;;;;;9.27;8.87;;;1.70;99.90;;;;;;5119389;27;20970;-70
2021/04/07 04:56:57;;;;;;;10.97;10.27;;;1.80;99.90;;;;;;5120966;27;20439;-71
2021/04/07 04:59:24;;;;;;;10.00;9.40;;;1.80;99.90;;;;;;5119703;27;20466;-71
2021/04/07 05:01:50;;;;;;;11.80;11.10;;;1.70;99.90;;;;;;5119860;28;20449;-72
2021/04/07 05:04:16;;;;;;;12.43;11.63;;;1.80;99.90;;;;;;5120916;27;20934;-72
2021/04/07 05:06:43;;;;;;;12.43;11.73;;;1.80;99.90;;;;;;5119528;28;20479;-72
2021/04/07 05:09:09;;;;;;;11.70;11.10;;;1.80;99.90;;;;;;5119333;27;20445;-72
2021/04/07 05:11:35;;;;;;;12.10;11.30;;;1.90;99.90;;;;;;5121014;28;20605;-70
2021/04/07 05:14:03;;;;;;;12.63;10.77;;;1.90;99.90;;;;;;5119183;28;20480;-70
2021/04/07 05:16:31;;;;;;;11.47;10.83;;;1.90;99.90;;;;;;5119534;28;20467;-71
2021/04/07 05:18:58;;;;;;;11.60;10.93;;;2.00;99.90;;;;;;5120865;27;20480;-71
2021/04/07 05:21:24;;;;;;;11.10;10.50;;;1.90;99.90;;;;;;5119565;27;20442;-72
2021/04/07 05:23:51;;;;;;;11.77;11.27;;;2.00;99.90;;;;;;5119748;28;20449;-70
2021/04/07 05:26:17;;;;;;;12.27;11.37;;;2.00;99.90;;;;;;5121156;28;20513;-70
2021/04/07 05:28:43;;;;;;;10.27;9.63;;;1.90;99.90;;;;;;5119762;27;20451;-71
2021/04/07 05:31:10;;;;;;;10.47;9.97;;;1.90;99.90;;;;;;5123320;27;20452;-71
2021/04/07 05:33:38;;;;;;;10.80;9.97;;;2.00;99.90;;;;;;5124627;27;20475;-70
2021/04/07 05:36:06;;;;;;;10.33;9.73;;;1.90;99.90;;;;;;5123765;27;20439;-70
2021/04/07 05:38:33;;;;;;;10.87;10.27;;;2.00;99.90;;;;;;5124042;27;20467;-71
2021/04/07 05:41:01;;;;;;;10.97;10.00;;;2.00;99.90;;;;;;5122129;27;20530;-72
2021/04/07 05:43:29;;;;;;;10.97;10.37;;;2.10;99.90;;;;;;5123563;27;20450;-72
2021/04/07 05:45:55;;;;;;;11.27;10.37;;;2.10;99.90;;;;;;5124497;27;20442;-70
2021/04/07 05:48:22;;;;;;;12.30;11.60;;;2.20;99.90;;;;;;5122508;27;20447;-72
2021/04/07 05:50:50;;;;;;;10.13;9.53;;;2.20;99.90;;;;;;5123302;27;20933;-71
2021/04/07 05:53:17;;;;;;;11.40;10.53;;;2.20;99.90;;;;;;5124046;27;20488;-72
2021/04/07 05:55:44;;;;;;;11.10;10.47;;;2.30;99.90;;;;;;5122733;27;20462;-72
2021/04/07 05:58:11;;;;;;;12.17;11.50;;;2.30;99.90;;;;;;5123335;27;20438;-72
2021/04/07 06:00:39;;;;;;;12.93;11.97;;;2.40;99.90;;;;;;5129627;27;20438;-72
2021/04/07 06:03:06;;;;;;;12.67;12.10;;;2.40;99.90;;;;;;5127452;27;20865;-73
2021/04/07 06:05:35;;;;;;;13.67;12.80;;;2.50;99.90;;;;;;5122496;27;20443;-72
2021/04/07 06:08:01;;;;;;;12.80;12.20;;;2.40;99.90;;;;;;5124096;27;20774;-73
2021/04/07 06:10:28;;;;;;;13.50;12.67;;;2.40;99.90;;;;;;5122758;27;20527;-72
2021/04/07 06:12:55;;;;;;;12.43;11.73;;;2.40;99.90;;;;;;5121803;27;20477;-73
2021/04/07 06:15:23;;;;;;;12.83;12.17;;;2.40;99.90;;;;;;5123622;27;20434;-70
2021/04/07 06:17:54;;;;;;;12.47;11.97;;;2.50;99.90;;;;;;5123058;27;20445;-70
2021/04/07 06:20:21;;;;;;;13.80;13.00;;;2.60;99.90;;;;;;5121081;27;20505;-72
2021/04/07 06:22:48;;;;;;;11.50;11.00;;;2.60;99.90;;;;;;5120712;27;20480;-71
2021/04/07 06:25:15;;;;;;;12.20;11.50;;;2.70;99.90;;;;;;5130819;27;20436;-71
2021/04/07 06:27:41;;;;;;;12.30;11.63;;;2.90;99.90;;;;;;5133950;27;20444;-70
2021/04/07 06:30:08;;;;;;;11.40;10.90;;;2.90;99.90;;;;;;5131542;27;20428;-71
2021/04/07 06:32:35;;;;;;;12.07;11.40;;;2.90;99.90;;;;;;5131813;27;20835;-70
2021/04/07 06:35:02;;;;;;;10.73;10.13;;;3.10;99.90;;;;;;5133528;27;20444;-70
2021/04/07 06:37:28;;;;;;;12.73;11.90;;;3.10;99.90;;;;;;5133681;27;20448;-69
2021/04/07 06:39:54;;;;;;;12.13;11.43;;;3.40;99.90;;;;;;5133058;27;20944;-70
2021/04/07 06:42:20;;;;;;;12.23;11.43;;;3.80;99.90;;;;;;5133382;27;20451;-70
2021/04/07 06:44:46;;;;;;;13.67;12.87;;;4.30;99.90;;;;;;5133521;27;20451;-71
2021/04/07 06:47:13;;;;;;;14.30;13.47;;;4.70;99.90;;;;;;5133564;27;20459;-71
2021/04/07 06:49:41;;;;;;;14.27;13.67;;;5.20;99.90;;;;;;5133663;27;20503;-71
2021/04/07 06:52:13;;;;;;;13.60;12.97;;;5.90;99.90;;;;;;5133726;27;20856;-71
2021/04/07 06:54:41;;;;;;;13.70;12.90;;;5.80;97.80;;;;;;5133843;27;20439;-70
2021/04/07 06:57:07;;;;;;;13.37;12.77;;;5.40;97.30;;;;;;5133411;27;20494;-70
2021/04/07 06:59:36;;;;;;;12.37;11.50;;;5.10;99.30;;;;;;5133444;27;20470;-72
2021/04/07 07:02:03;;;;;;;12.90;12.30;;;5.40;99.90;;;;;;5133431;27;20447;-72
2021/04/07 07:04:29;;;;;;;11.83;11.23;;;5.90;99.70;;;;;;5133428;27;20958;-72
2021/04/07 07:06:57;;;;;;;12.33;11.77;;;6.80;97.90;;;;;;5133454;27;20452;-72
2021/04/07 07:09:23;;;;;;;12.50;11.77;;;7.50;97.20;;;;;;5133150;27;20455;-69
2021/04/07 07:11:51;;;;;;;11.20;10.67;;;7.70;94.70;;;;;;5132836;27;20489;-70
2021/04/07 07:14:18;;;;;;;13.50;12.37;;;7.20;95.50;;;;;;5133130;27;20491;-72
2021/04/07 07:16:45;;;;;;;11.43;10.80;;;7.20;95.60;;;;;;5133046;27;21028;-71
2021/04/07 07:19:24;;;;;;;11.50;10.93;;;6.70;95.60;;;;;;5133038;27;20468;-71
2021/04/07 07:21:51;;;;;;;11.37;10.30;;;6.20;95.50;;;;;;5133215;27;20866;-68
2021/04/07 07:24:33;;;;;;;10.50;9.80;;;5.70;96.60;;;;;;5132965;27;20965;-71
2021/04/07 07:27:00;;;;;;;11.30;10.50;;;5.40;97.10;;;;;;5132787;27;20455;-71
2021/04/07 07:29:28;;;;;;;10.93;10.27;;;5.30;97.10;;;;;;5132928;27;20442;-71
2021/04/07 07:31:59;;;;;;;11.70;11.13;;;5.00;97.10;;;;;;5132921;27;20818;-71
2021/04/07 07:34:26;;;;;;;10.03;9.50;;;5.00;97.50;;;;;;5112027;28;20487;-72
2021/04/07 07:36:53;;;;;;;10.17;9.67;;;5.10;96.60;;;;;;5111995;28;20449;-71
2021/04/07 07:39:24;;;;;;;10.83;10.00;;;5.10;97.00;;;;;;5112062;28;20845;-72
2021/04/07 07:41:52;;;;;;;10.60;10.20;;;5.20;97.70;;;;;;5111985;28;20820;-73
2021/04/07 07:44:19;;;;;;;10.87;10.27;;;5.30;97.10;;;;;;5112337;28;20459;-72
2021/04/07 07:46:48;;;;;;;12.53;11.00;;;5.50;97.60;;;;;;5112004;28;20452;-72
2021/04/07 07:49:15;;;;;;;10.17;9.43;;;5.50;96.50;;;;;;5112080;28;20463;-72
2021/04/07 07:51:44;;;;;;;10.50;9.90;;;5.60;96.60;;;;;;5111455;28;20514;-70
2021/04/07 07:54:14;;;;;;;10.50;10.07;;;5.70;96.20;;;;;;5111954;28;20889;-70
2021/04/07 07:56:40;;;;;;;10.97;10.30;;;5.60;95.30;;;;;;5111693;28;20474;-69
2021/04/07 07:59:07;;;;;;;10.30;9.80;;;5.30;95.70;;;;;;5111709;28;20448;-69
2021/04/07 08:01:41;;;;;;;11.23;10.57;;;5.30;96.10;;;;;;5111778;28;20987;-69
2021/04/07 08:04:08;;;;;;;9.97;9.17;;;4.90;96.20;;;;;;5111590;28;20813;-70
2021/04/07 08:06:34;;;;;;;9.70;9.30;;;4.90;96.70;;;;;;5111906;28;20464;-69
2021/04/07 08:09:00;;;;;;;10.40;9.90;;;4.80;96.90;;;;;;5111668;28;20445;-70
2021/04/07 08:11:27;;;;;;;9.87;9.37;;;4.80;96.10;;;;;;5112163;28;20797;-71
2021/04/07 08:13:54;;;;;;;11.13;10.47;;;4.70;97.00;;;;;;5111867;28;20486;-72
2021/04/07 08:16:22;;;;;;;9.20;8.77;;;4.80;96.90;;;;;;5111664;28;20473;-71
2021/04/07 08:18:50;;;;;;;10.07;9.50;;;4.80;96.70;;;;;;5111600;28;20483;-72
2021/04/07 08:21:17;;;;;;;9.40;8.97;;;4.70;96.40;;;;;;5111825;28;20460;-71
2021/04/07 08:23:45;;;;;;;10.00;9.40;;;4.70;96.00;;;;;;5111918;28;20444;-71
2021/04/07 08:26:12;;;;;;;10.37;9.77;;;4.70;96.30;;;;;;5111806;28;20505;-71
2021/04/07 08:28:41;;;;;;;10.47;9.97;;;5.00;96.20;;;;;;5111731;28;20454;-72
2021/04/07 08:31:11;;;;;;;10.50;9.77;;;5.40;95.60;;;;;;5111737;28;20457;-74
2021/04/07 08:33:38;;;;;;;10.87;10.20;;;5.50;95.80;;;;;;5126216;27;20486;-72
2021/04/07 08:36:05;;;;;;;10.50;10.00;;;5.60;95.60;;;;;;5132322;27;20446;-72
2021/04/07 08:38:33;;;;;;;11.10;10.50;;;5.60;95.70;;;;;;5132321;27;20463;-73
2021/04/07 08:41:09;;;;;;;9.53;9.03;;;5.90;95.40;;;;;;5132152;27;20931;-72
2021/04/07 08:43:36;;;;;;;11.07;10.40;;;6.30;94.70;;;;;;5132148;27;20450;-73
2021/04/07 08:46:11;;;;;;;10.10;9.70;;;6.40;95.10;;;;;;5131923;27;20462;-73
2021/04/07 08:48:38;;;;;;;10.33;9.83;;;6.30;95.10;;;;;;5131894;27;20447;-72
2021/04/07 08:51:07;;;;;;;10.10;9.30;;;6.40;95.90;;;;;;5132966;27;20447;-72
2021/04/07 08:53:37;;;;;;;9.87;9.43;;;6.10;95.50;;;;;;5140226;27;20483;-72
2021/04/07 08:56:06;;;;;;;10.20;9.70;;;5.90;96.40;;;;;;5140690;27;20469;-72
2021/04/07 08:58:33;;;;;;;10.20;9.70;;;6.10;96.40;;;;;;5133230;27;20459;-72
2021/04/07 09:00:59;;;;;;;10.93;10.33;;;6.10;95.60;;;;;;5131819;27;21014;-72
2021/04/07 09:03:27;;;;;;;10.47;10.00;;;6.40;95.50;;;;;;5133569;27;20440;-72
2021/04/07 09:05:55;;;;;;;10.00;9.60;;;6.60;94.90;;;;;;5135880;27;20459;-71
2021/04/07 09:08:22;;;;;;;10.30;9.80;;;6.80;94.70;;;;;;5135835;27;20451;-72
2021/04/07 09:10:50;;;;;;;10.30;9.90;;;7.20;94.60;;;;;;5135802;27;20452;-72
2021/04/07 09:13:19;;;;;;;10.60;9.80;;;6.90;93.20;;;;;;5135601;27;20489;-72
2021/04/07 09:15:50;;;;;;;11.67;10.87;;;6.30;94.00;;;;;;5135868;27;20846;-72
2021/04/07 09:18:18;;;;;;;10.30;9.70;;;5.60;95.00;;;;;;5135505;27;20845;-72
2021/04/07 09:20:46;;;;;;;10.00;9.60;;;5.50;96.10;;;;;;5135820;27;20449;-72
2021/04/07 09:23:23;;;;;;;9.77;9.10;;;5.60;96.40;;;;;;5135803;27;20442;-72
2021/04/07 09:25:52;;;;;;;9.70;9.20;;;5.50;96.60;;;;;;5135641;27;20487;-72
2021/04/07 09:28:29;;;;;;;10.60;10.00;;;5.60;97.70;;;;;;5135272;27;20449;-72
2021/04/07 09:31:03;;;;;;;11.07;10.57;;;5.60;98.30;;;;;;5135801;27;20444;-72
2021/04/07 09:33:30;;;;;;;10.00;9.53;;;5.90;97.40;;;;;;5135419;27;20483;-72
2021/04/07 09:35:58;;;;;;;10.33;9.93;;;6.00;97.30;;;;;;5135378;27;20447;-73
2021/04/07 09:38:27;;;;;;;11.10;10.50;;;6.10;96.40;;;;;;5135304;27;20551;-72
2021/04/07 09:41:10;;;;;;;11.03;10.40;;;6.50;97.10;;;;;;5135210;27;20455;-73
2021/04/07 09:43:38;;;;;;;11.27;10.57;;;6.90;95.60;;;;;;5135176;27;20444;-73
2021/04/07 09:46:06;;;;;;;12.60;12.00;;;7.40;95.10;;;;;;5135241;27;20505;-73
2021/04/07 09:48:44;;;;;;;10.20;9.80;;;7.30;94.70;;;;;;5135209;27;20474;-73
2021/04/07 09:51:31;;;;;;;9.80;9.30;;;7.70;93.80;;;;;;5135494;27;20441;-72
2021/04/07 09:54:10;;;;;;;10.60;10.13;;;8.20;92.90;;;;;;5135051;27;20999;-72
2021/04/07 09:56:50;;;;;;;11.00;10.60;;;8.30;90.90;;;;;;5134937;27;20441;-72
2021/04/07 09:59:17;;;;;;;10.37;9.87;;;8.20;91.10;;;;;;5134887;27;20474;-72
2021/04/07 10:01:44;;;;;;;10.80;10.20;;;9.00;89.20;;;;;;5135292;27;20457;-72
2021/04/07 10:04:10;;;;;;;10.00;9.60;;;9.50;88.70;;;;;;5134755;27;20465;-71
2021/04/07 10:06:38;;;;;;;11.17;10.77;;;10.60;83.30;;;;;;5134844;27;20480;-72
2021/04/07 10:09:06;;;;;;;10.90;10.53;;;12.00;77.10;;;;;;5134785;27;20444;-73
2021/04/07 10:11:37;;;;;;;11.10;10.60;;;11.80;73.00;;;;;;5134510;27;20444;-75
2021/04/07 10:14:04;;;;;;;11.30;10.73;;;11.00;73.40;;;;;;5134459;27;20494;-74
2021/04/07 10:16:34;;;;;;;10.90;10.50;;;9.80;76.30;;;;;;5134142;27;20996;-73
2021/04/07 10:19:01;;;;;;;11.53;10.80;;;9.20;76.60;;;;;;5134266;27;20570;-72
2021/04/07 10:21:28;;;;;;;10.97;10.47;;;8.70;80.00;;;;;;5134277;27;20445;-72
2021/04/07 10:23:57;;;;;;;10.23;9.83;;;8.20;81.30;;;;;;5134383;27;20464;-72
2021/04/07 10:26:23;;;;;;;11.17;10.47;;;7.60;83.50;;;;;;5134145;27;20963;-72
2021/04/07 10:28:57;;;;;;;10.67;10.13;;;7.30;85.90;;;;;;5134407;27;20449;-72
2021/04/07 10:31:24;;;;;;;11.60;10.80;;;7.10;86.90;;;;;;5134143;27;20445;-71
2021/04/07 10:34:02;;;;;;;11.90;11.40;;;6.80;88.10;;;;;;5134210;27;20483;-72
2021/04/07 10:36:29;;;;;;;10.80;9.90;;;6.70;90.30;;;;;;5134351;27;20879;-71
2021/04/07 10:38:56;;;;;;;9.93;9.53;;;6.70;91.10;;;;;;5134146;27;20939;-71
2021/04/07 10:41:25;;;;;;;10.67;9.97;;;6.70;91.50;;;;;;5133967;27;20450;-72
2021/04/07 10:43:51;;;;;;;9.70;8.87;;;6.60;91.70;;;;;;5134263;27;20841;-72
2021/04/07 10:46:30;;;;;;;10.23;9.50;;;6.90;91.50;;;;;;5133891;27;20456;-71
2021/04/07 10:48:57;;;;;;;9.90;9.40;;;6.80;91.70;;;;;;5134268;27;20452;-71
2021/04/07 10:51:24;;;;;;;9.90;9.30;;;6.90;91.30;;;;;;5133693;27;20459;-72
2021/04/07 10:53:56;;;;;;;10.30;9.90;;;7.40;91.00;;;;;;5133455;27;20476;-71
2021/04/07 10:56:24;;;;;;;10.17;9.77;;;7.40;89.90;;;;;;5133177;27;20899;-72
2021/04/07 10:58:54;;;;;;;10.87;10.47;;;7.40;88.00;;;;;;5133335;27;20448;-71
2021/04/07 11:01:31;;;;;;;9.07;8.67;;;7.60;87.90;;;;;;5133443;27;20456;-70
2021/04/07 11:03:57;;;;;;;9.97;9.47;;;7.80;86.80;;;;;;5133569;27;20444;-72
2021/04/07 11:06:25;;;;;;;10.60;10.00;;;8.10;85.50;;;;;;5133309;27;20452;-70
2021/04/07 11:08:52;;;;;;;10.83;10.23;;;8.90;84.10;;;;;;5133300;27;20452;-71
2021/04/07 11:11:25;;;;;;;10.73;10.33;;;9.70;80.90;;;;;;5133156;27;20444;-71
2021/04/07 11:13:52;;;;;;;10.37;9.97;;;10.50;75.00;;;;;;5132938;27;20735;-72
2021/04/07 11:16:19;;;;;;;11.13;10.63;;;10.30;75.00;;;;;;5133140;27;20468;-72
2021/04/07 11:18:49;;;;;;;10.90;10.40;;;10.30;73.60;;;;;;5133022;27;20476;-71
2021/04/07 11:21:17;;;;;;;10.00;9.70;;;10.20;72.80;;;;;;5133110;27;20452;-71
2021/04/07 11:23:43;;;;;;;10.10;9.70;;;10.10;70.80;;;;;;5133054;27;20505;-72
2021/04/07 11:26:10;;;;;;;11.37;10.60;;;10.70;70.20;;;;;;5132149;27;20465;-72
2021/04/07 11:28:36;;;;;;;11.03;10.40;;;10.60;69.00;;;;;;5132782;27;20506;-71
2021/04/07 11:31:07;;;;;;;10.40;9.90;;;9.20;70.60;;;;;;5132908;27;20950;-72
2021/04/07 11:33:44;;;;;;;11.60;11.10;;;9.00;72.40;;;;;;5132619;27;20483;-72
2021/04/07 11:36:42;;;;;;;11.67;10.97;;;9.20;73.00;;;;;;5132960;27;20559;-70
2021/04/07 11:39:14;;;;;;;11.17;10.43;;;9.90;71.80;;;;;;5132844;27;20496;-70
2021/04/07 11:41:59;;;;;;;10.90;10.50;;;9.70;70.70;;;;;;5133010;27;20437;-69
2021/04/07 11:44:30;;;;;;;11.10;10.50;;;9.60;71.20;;;;;;5133187;27;20436;-70
2021/04/07 11:46:56;;;;;;;11.23;10.63;;;10.40;68.10;;;;;;5132959;27;20563;-70
2021/04/07 11:49:23;;;;;;;10.87;10.37;;;10.80;66.60;;;;;;5132868;27;20778;-69
2021/04/07 11:51:50;;;;;;;11.17;10.67;;;11.10;59.90;;;;;;5132906;27;20452;-69
2021/04/07 11:54:16;;;;;;;9.83;9.43;;;10.60;59.70;;;;;;5131530;27;20476;-70
2021/04/07 11:56:45;;;;;;;10.20;9.63;;;9.90;60.80;;;;;;5134484;27;20460;-71
2021/04/07 11:59:12;;;;;;;10.13;9.63;;;9.30;62.20;;;;;;5135662;27;20448;-70
2021/04/07 12:01:38;;;;;;;10.67;9.87;;;9.10;63.30;;;;;;5132390;27;20447;-70
2021/04/07 12:04:05;;;;;;;11.07;10.53;;;8.70;63.90;;;;;;5132271;27;20501;-71
2021/04/07 12:06:32;;;;;;;10.60;10.20;;;8.40;66.20;;;;;;5132498;27;20459;-71
2021/04/07 12:08:59;;;;;;;11.27;10.67;;;8.10;67.50;;;;;;5132549;27;20924;-72
2021/04/07 12:11:26;;;;;;;9.83;9.23;;;8.20;67.30;;;;;;5132238;27;20463;-70
2021/04/07 12:13:52;;;;;;;9.70;9.03;;;8.20;66.60;;;;;;5132301;27;21022;-71
2021/04/07 12:16:18;;;;;;;10.93;10.40;;;7.90;67.60;;;;;;5125146;27;20529;-71
2021/04/07 12:18:45;;;;;;;10.80;10.37;;;7.50;69.30;;;;;;5114885;27;20469;-71
2021/04/07 12:21:12;;;;;;;10.23;9.67;;;7.30;69.00;;;;;;5132613;27;20451;-71
2021/04/07 12:23:38;;;;;;;10.07;9.57;;;7.30;70.70;;;;;;5127524;27;20514;-71
2021/04/07 12:26:05;;;;;;;10.63;10.10;;;7.20;71.50;;;;;;5111899;28;20461;-71
2021/04/07 12:28:31;;;;;;;10.67;10.17;;;7.00;73.90;;;;;;5112012;28;20510;-70
2021/04/07 12:30:57;;;;;;;9.60;9.10;;;7.10;75.20;;;;;;5124264;27;20444;-71
2021/04/07 12:33:26;;;;;;;10.40;9.60;;;7.10;73.80;;;;;;5116733;28;20530;-70
2021/04/07 12:36:06;;;;;;;9.87;9.37;;;7.30;74.10;;;;;;5111821;28;20498;-70
2021/04/07 12:38:33;;;;;;;9.67;9.10;;;7.50;74.20;;;;;;5113804;28;20450;-70
2021/04/07 12:41:03;;;;;;;9.50;9.00;;;7.50;74.10;;;;;;5116099;28;20453;-71
2021/04/07 12:43:30;;;;;;;9.60;9.00;;;7.80;73.60;;;;;;5116084;28;20975;-70